Terminal Aerodrome Forecast
Issued by NWS Lubbock, TX

Home | Current Version | Previous Version | Text Only | Print | Product List | Glossary On
Versions: 1 2 3 4 5 6 7 8 9 10 11 12 13
000
FTUS44 KLUB 252330
TAFLBB
TAF
KLBB 252330Z 2600/2624 29015G25KT P6SM SCT120 BKN250
     FM260200 32011KT P6SM SCT100 BKN250
     FM261100 35016G26KT P6SM BKN015
     FM262000 33014KT P6SM SKC=

USA.gov is the U.S. government's official web portal to all federal, state and local government web resources and services.